createdAt,value
2022-07-29T00:03:03.083Z,1.95
2022-07-29T00:08:12.418Z,2.13
2022-07-29T00:13:14.975Z,2.10
2022-07-29T00:18:21.117Z,2.27
2022-07-29T00:23:27.403Z,2.33
2022-07-29T00:28:33.643Z,2.34
2022-07-29T00:33:39.890Z,1.96
2022-07-29T00:38:46.622Z,2.28
2022-07-29T00:43:53.084Z,2.18
2022-07-29T00:48:59.302Z,2.47
2022-07-29T00:54:05.570Z,2.16
2022-07-29T00:59:11.771Z,2.39
2022-07-29T01:04:18.376Z,2.22
2022-07-29T01:09:36.012Z,2.44
2022-07-29T01:14:29.538Z,2.48
2022-07-29T01:19:35.757Z,2.43
2022-07-29T01:24:42.134Z,2.65
2022-07-29T01:29:48.291Z,2.21
2022-07-29T01:34:54.251Z,2.49
2022-07-29T01:40:00.354Z,2.25
2022-07-29T01:45:06.651Z,2.47
2022-07-29T01:50:12.777Z,2.19
2022-07-29T01:55:19.026Z,2.27
2022-07-29T02:00:25.222Z,2.21
2022-07-29T02:05:31.620Z,2.24
2022-07-29T02:10:37.746Z,2.23
2022-07-29T02:15:44.015Z,2.24
2022-07-29T02:20:50.063Z,2.12
2022-07-29T02:25:56.333Z,1.94
2022-07-29T02:31:02.473Z,2.25
2022-07-29T02:36:08.821Z,2.37
2022-07-29T02:41:15.053Z,2.27
2022-07-29T02:46:29.011Z,2.11
2022-07-29T02:51:44.007Z,2.28
2022-07-29T02:56:33.011Z,2.50
2022-07-29T03:01:39.305Z,2.22
2022-07-29T03:06:45.508Z,2.04
2022-07-29T03:11:51.726Z,2.48
2022-07-29T03:16:57.925Z,2.24
2022-07-29T03:22:04.080Z,2.04
2022-07-29T03:27:10.453Z,2.23
2022-07-29T03:32:16.676Z,2.31
2022-07-29T03:37:22.487Z,2.15
2022-07-29T03:42:33.828Z,2.24
2022-07-29T03:47:50.335Z,2.24
2022-07-29T03:52:40.238Z,2.01
2022-07-29T03:57:46.469Z,2.24
2022-07-29T04:02:53.655Z,1.94
2022-07-29T04:07:59.941Z,2.15
2022-07-29T04:13:06.298Z,2.37
2022-07-29T04:18:12.650Z,2.15
2022-07-29T04:23:19.142Z,2.06
2022-07-29T04:28:25.955Z,2.12
2022-07-29T04:33:32.033Z,2.18
2022-07-29T04:38:38.281Z,2.39
2022-07-29T04:43:44.646Z,2.26
2022-07-29T04:48:51.421Z,2.34
2022-07-29T04:53:57.838Z,2.29
2022-07-29T04:59:04.136Z,2.26
2022-07-29T05:04:10.305Z,2.36
2022-07-29T05:09:16.632Z,2.51
2022-07-29T05:14:22.745Z,2.44
2022-07-29T05:19:28.983Z,2.24
2022-07-29T05:24:35.097Z,2.44
2022-07-29T05:29:44.862Z,2.52
2022-07-29T05:34:51.229Z,2.60
2022-07-29T05:39:56.576Z,2.24
2022-07-29T05:44:58.928Z,2.55
2022-07-29T05:50:05.586Z,2.46
2022-07-29T05:55:11.683Z,2.39
2022-07-29T06:00:18.132Z,2.62
2022-07-29T06:05:24.777Z,2.49
2022-07-29T06:10:31.088Z,2.44
2022-07-29T06:15:37.284Z,2.56
2022-07-29T06:20:43.650Z,2.54
2022-07-29T06:25:49.694Z,2.54
2022-07-29T06:30:56.114Z,2.86
2022-07-29T06:36:02.494Z,2.69
2022-07-29T06:41:08.309Z,3.30
2022-07-29T06:46:14.510Z,2.92
2022-07-29T06:51:23.223Z,2.90
2022-07-29T06:56:27.005Z,2.86
2022-07-29T07:01:33.453Z,2.73
2022-07-29T07:06:39.490Z,2.48
2022-07-29T07:11:46.213Z,2.72
2022-07-29T07:16:52.691Z,2.76
2022-07-29T07:21:57.614Z,2.76
2022-07-29T07:27:03.763Z,2.76
2022-07-29T07:32:10.156Z,2.54
2022-07-29T07:37:16.605Z,2.49
2022-07-29T07:42:23.002Z,2.69
2022-07-29T07:47:29.238Z,2.64
2022-07-29T07:52:35.459Z,2.61
2022-07-29T07:57:41.551Z,2.82
2022-07-29T08:02:47.890Z,2.71
2022-07-29T08:07:54.083Z,2.78
2022-07-29T08:13:00.368Z,2.72
2022-07-29T08:18:08.684Z,2.84
2022-07-29T08:23:11.799Z,2.64
2022-07-29T08:28:18.072Z,2.72
2022-07-29T08:33:24.287Z,2.53
2022-07-29T08:38:30.547Z,2.63
2022-07-29T08:43:36.794Z,2.79
2022-07-29T08:48:42.946Z,2.22
2022-07-29T08:53:49.301Z,2.43
2022-07-29T08:58:55.459Z,2.57
2022-07-29T09:04:01.706Z,2.32
2022-07-29T09:09:07.860Z,2.35
2022-07-29T09:14:14.066Z,2.61
2022-07-29T09:19:20.303Z,2.39
2022-07-29T09:24:27.210Z,2.81
2022-07-29T09:29:36.066Z,2.56
2022-07-29T09:34:39.144Z,2.22
2022-07-29T09:39:45.237Z,2.61
2022-07-29T09:44:50.992Z,2.58
2022-07-29T09:49:57.159Z,2.45
2022-07-29T09:55:03.655Z,2.33
2022-07-29T10:00:09.742Z,2.19
2022-07-29T10:05:16.082Z,2.35
2022-07-29T10:10:22.175Z,2.44
2022-07-29T10:15:28.404Z,2.14
2022-07-29T10:20:34.586Z,2.17
2022-07-29T10:25:45.959Z,2.22
2022-07-29T10:30:46.562Z,1.77
2022-07-29T10:35:52.882Z,1.95
2022-07-29T10:40:59.558Z,2.09
2022-07-29T10:46:07.470Z,1.88
2022-07-29T10:51:12.556Z,1.92
2022-07-29T10:56:17.432Z,1.97
2022-07-29T11:01:37.315Z,2.13
2022-07-29T11:06:29.479Z,1.85
2022-07-29T11:11:36.101Z,1.92
2022-07-29T11:16:41.810Z,2.32
2022-07-29T11:21:54.309Z,2.04
2022-07-29T11:26:57.524Z,1.79
2022-07-29T11:31:59.578Z,1.87
2022-07-29T11:37:05.734Z,2.22
2022-07-29T11:42:13.595Z,1.66
2022-07-29T11:47:18.208Z,1.79
2022-07-29T11:52:23.879Z,2.14
2022-07-29T11:53:38.783Z,1.92
2022-07-29T11:58:44.994Z,1.75
2022-07-29T12:03:51.206Z,1.84
2022-07-29T12:08:56.942Z,1.84
2022-07-29T12:14:03.103Z,2.05
2022-07-29T12:19:08.862Z,2.10
2022-07-29T12:24:15.094Z,2.14
2022-07-29T12:29:33.678Z,1.97
2022-07-29T12:34:27.426Z,2.06
2022-07-29T12:39:33.686Z,2.36
2022-07-29T12:44:40.203Z,1.96
2022-07-29T12:49:46.603Z,1.86
2022-07-29T12:54:52.738Z,2.04
2022-07-29T12:59:58.953Z,1.94
2022-07-29T13:05:05.374Z,2.63
2022-07-29T13:10:12.074Z,2.48
2022-07-29T13:15:18.698Z,2.53
2022-07-29T13:20:25.046Z,1.96
2022-07-29T13:25:31.326Z,1.87
2022-07-29T13:30:37.713Z,1.97
2022-07-29T13:35:44.130Z,2.09
2022-07-29T13:40:51.202Z,1.73
2022-07-29T13:45:57.499Z,2.34
2022-07-29T13:51:03.770Z,2.14
2022-07-29T13:56:09.918Z,2.16
2022-07-29T14:01:16.212Z,2.14
2022-07-29T14:06:22.386Z,2.13
2022-07-29T14:11:28.584Z,1.88
2022-07-29T14:16:37.095Z,1.95
2022-07-29T14:21:41.186Z,1.86
2022-07-29T14:26:47.480Z,2.06
2022-07-29T14:31:53.680Z,1.86
2022-07-29T14:36:59.796Z,1.92
2022-07-29T14:42:06.040Z,1.84
2022-07-29T14:47:12.166Z,1.82
2022-07-29T14:52:18.358Z,1.98
2022-07-29T14:57:24.481Z,2.06
2022-07-29T15:02:46.043Z,2.10
2022-07-29T15:07:36.443Z,2.26
2022-07-29T15:12:42.744Z,2.09
2022-07-29T15:17:48.852Z,2.16
2022-07-29T15:22:55.182Z,2.59
2022-07-29T15:28:01.937Z,2.12
2022-07-29T15:33:07.284Z,2.44
2022-07-29T15:38:13.426Z,2.33
2022-07-29T15:43:19.754Z,2.59
2022-07-29T15:48:25.890Z,2.63
2022-07-29T15:53:32.073Z,2.23
2022-07-29T15:58:37.695Z,2.52
2022-07-29T16:03:46.234Z,2.29
2022-07-29T16:08:49.522Z,2.61
2022-07-29T16:13:55.762Z,2.47
2022-07-29T16:19:01.866Z,2.40
2022-07-29T16:24:08.526Z,2.41
2022-07-29T16:30:03.244Z,2.53
2022-07-29T16:35:09.519Z,2.27
2022-07-29T16:40:15.675Z,2.21
2022-07-29T16:45:21.941Z,2.51
2022-07-29T16:50:28.046Z,2.33
2022-07-29T16:55:34.266Z,2.67
2022-07-29T17:00:40.480Z,2.41
2022-07-29T17:05:52.330Z,2.52
2022-07-29T17:10:52.321Z,2.64
2022-07-29T17:16:00.613Z,2.85
2022-07-29T17:21:04.126Z,2.36
2022-07-29T17:26:10.533Z,2.31
2022-07-29T17:31:16.725Z,2.18
2022-07-29T17:36:23.066Z,2.03
2022-07-29T17:41:29.230Z,2.22
2022-07-29T17:46:35.439Z,2.33
2022-07-29T17:51:41.565Z,2.25
2022-07-29T17:56:49.873Z,2.46
2022-07-29T18:01:56.018Z,2.42
2022-07-29T18:07:02.578Z,2.44
2022-07-29T18:12:08.694Z,2.46
2022-07-29T18:17:14.982Z,2.32
2022-07-29T18:22:21.085Z,2.71
2022-07-29T18:27:27.346Z,3.03
2022-07-29T18:32:33.446Z,2.73
2022-07-29T18:38:01.608Z,2.51
2022-07-29T18:42:45.390Z,3.08
2022-07-29T18:47:51.636Z,2.97
2022-07-29T18:52:57.454Z,3.09
2022-07-29T18:58:03.666Z,2.62
2022-07-29T19:03:09.948Z,2.60
2022-07-29T19:08:16.173Z,2.36
2022-07-29T19:13:22.826Z,2.41
2022-07-29T19:18:29.137Z,2.29
2022-07-29T19:24:00.127Z,2.59
2022-07-29T19:28:41.273Z,2.33
2022-07-29T19:33:47.023Z,2.15
2022-07-29T19:38:53.286Z,2.39
2022-07-29T19:43:59.434Z,2.16
2022-07-29T19:49:05.793Z,2.31
2022-07-29T19:54:11.846Z,2.62
2022-07-29T19:59:18.193Z,2.22
2022-07-29T20:04:23.890Z,2.16
2022-07-29T20:09:30.295Z,2.51
2022-07-29T20:15:16.604Z,2.49
2022-07-29T20:20:21.489Z,2.34
2022-07-29T20:25:27.647Z,2.35
2022-07-29T20:30:33.894Z,2.65
2022-07-29T20:35:39.947Z,2.86
2022-07-29T20:40:46.277Z,2.35
2022-07-29T20:45:52.616Z,2.69
2022-07-29T20:50:58.758Z,2.49
2022-07-29T20:56:04.915Z,2.86
2022-07-29T21:01:11.451Z,2.93
2022-07-29T21:06:17.632Z,2.94
2022-07-29T21:11:43.595Z,2.79
2022-07-29T21:16:29.970Z,2.63
2022-07-29T21:21:36.267Z,2.76
2022-07-29T21:26:47.258Z,2.95
2022-07-29T21:31:48.218Z,2.99
2022-07-29T21:36:54.342Z,2.91
2022-07-29T21:42:00.998Z,3.22
2022-07-29T21:47:07.151Z,2.83
2022-07-29T21:52:13.587Z,2.81
2022-07-29T21:57:19.603Z,3.03
2022-07-29T22:02:25.867Z,2.99
2022-07-29T22:07:56.168Z,2.63
2022-07-29T22:12:37.949Z,2.63
2022-07-29T22:17:44.102Z,2.66
2022-07-29T22:22:50.706Z,2.47
2022-07-29T22:27:56.824Z,2.80
2022-07-29T22:33:03.209Z,2.61
2022-07-29T22:38:09.386Z,2.74
2022-07-29T22:43:15.702Z,2.52
2022-07-29T22:48:22.275Z,2.48
2022-07-29T22:53:28.459Z,2.75
2022-07-29T22:58:34.934Z,2.72
2022-07-29T23:03:41.422Z,2.78
2022-07-29T23:08:47.106Z,2.68
2022-07-29T23:13:53.428Z,2.91
2022-07-29T23:18:59.541Z,2.84
2022-07-29T23:24:05.978Z,3.15
2022-07-29T23:30:16.949Z,3.10
2022-07-29T23:35:23.663Z,3.00
2022-07-29T23:40:29.755Z,3.06
2022-07-29T23:45:44.588Z,3.37
2022-07-29T23:50:41.813Z,3.17
2022-07-29T23:55:48.224Z,3.08
